Historyczne dane pomiarowe

Dodano dane terminowe – wersja testowa.

Dane z okresu 1951-2019

Wersja bazy: 1.34 [2019-03-16, lista zmian], aktualizacja planowana na 2019-04-15

Dane meteo z obszaru Polski uzyskane na podstawie danych udostępnionych przez Instytut Meteorologii i Gospodarki Wodnej – Państwowy Instytut Badawczy.

 

Wybierz Datę:    

       

TemperaturaWilgotnośćWiatrCiśnienieOpadyŚniegCzas trwania zjawisk
 Stacja t tx tn tng RH VA  wxwx mslp ppp RRR   cm mm wxwxwxwxwxwxwx
1987-08-14 15.0 22.2 8.4--- 4.3 3.3---- 0.0------------
1987-08-13 12.4 16.8 6.2--- 3.7 2.0---- 0.0------------
1987-08-12 12.5 18.5 8.2--- 5.0 4.0---- 3.3------------
1987-08-11 13.6 17.4 11.4--- 6.0 4.0---- 1.2------------
1987-08-10 15.7 19.0 11.4--- 6.3 4.0---- 0.0------------
1987-08-09 17.2 23.5 10.7--- 3.0 3.0---- 0.5------------
1987-08-08 13.9 18.8 10.8--- 5.7 2.0---- 0.0------------
1987-08-07 13.4 19.2 8.0--- 4.0 4.0---- 1.0------------
1987-08-06 12.4 16.5 9.8--- 5.3 3.3---- 2.6------------
1987-08-05 13.2 19.0 6.2--- 4.3 4.0---- 0.0------------
1987-08-04 15.9 19.9 10.0--- 5.7 3.0---- 0.6------------
1987-08-03 14.2 18.8 11.5--- 5.0 4.0---- 0.0------------
1987-08-02 15.1 18.9 12.4--- 5.0 2.0---- 4.8------------
1987-08-01 16.1 21.5 7.0--- 5.3 3.0---- 3.8------------
1987-07-31 17.1 21.5 15.0--- 6.0 3.0---- 2.0------------
1987-07-30 17.3 23.5 9.5--- 4.7 3.0---- 0.0------------
1987-07-29 14.7 17.8 11.2--- 5.0 3.0---- 0.0------------
1987-07-28 14.0 19.4 11.1--- 6.0 4.0---- 8.6------------
1987-07-27 12.3 16.5 8.2--- 4.3 4.0---- 1.0------------
1987-07-26 13.4 17.8 10.8--- 7.0 3.0---- 13.8------------
1987-07-25 19.0 24.8 15.9--- 4.3 1.0---- 1.8------------
1987-07-24 21.5 26.5 15.6--- 4.3 1.0---- 5.2------------
1987-07-23 20.6 28.3 14.1--- 3.7 2.0---- 1.0------------
1987-07-22 20.1 25.7 16.5--- 4.3 2.3---- 19.5------------
1987-07-21 19.9 26.7 10.6--- 3.7 2.0---- 0.0------------
1987-07-20 21.2 26.8 18.8--- 2.7 4.0---- 0.0------------
1987-07-19 21.6 27.0 16.0--- 4.0 4.0---- 0.1------------
1987-07-18 20.7 26.6 16.3--- 6.3 3.0---- 2.9------------
1987-07-17 20.5 26.0 15.6--- 5.0 4.0---- 0.0------------
1987-07-16 19.5 26.5 8.4--- 4.0 2.3---- 0.0------------
1987-07-15 17.0 26.5 5.0--- 1.3 2.0---- 0.0------------
1987-07-14 16.0 19.7 9.0--- 3.7 3.0---- 0.0------------
1987-07-13 18.5 24.3 12.0--- 4.3 3.0---- 0.0------------
1987-07-12 21.2 29.8 14.0--- 4.7 4.0---- 3.9------------
1987-07-11 17.4 23.5 8.0--- 3.3 4.0---- 0.0------------
1987-07-10 15.6 19.5 11.0--- 2.0 5.0---- 0.0------------
1987-07-09 18.4 24.0 15.4--- 7.7 4.0---- 2.2------------
1987-07-08 21.3 29.0 10.3--- 1.7 3.0---- 0.0------------
1987-07-07 19.4 27.0 7.7--- 0.3 1.7---- 0.0------------
1987-07-06 16.8 23.6 5.6--- 0.7 2.0---- 0.0------------
1987-07-05 15.8 21.6 12.5--- 3.3 2.0---- 3.4------------
1987-07-04 17.2 21.9 11.7--- 5.3 1.3---- 0.0------------
1987-07-03 19.5 24.0 16.2--- 6.0 2.7---- 0.0------------
1987-07-02 20.5 27.0 18.1--- 6.7 3.3---- 0.0------------
1987-07-01 22.8 31.8 18.3--- 2.0 3.3---- 0.0------------
1987-06-30 23.0 29.5 16.2--- 4.3 2.0---- 0.0------------
1987-06-29 19.6 26.0 10.5--- 4.7 3.0---- 0.0------------
1987-06-28 17.9 25.0 9.5--- 3.7 3.0---- 0.0------------
1987-06-27 18.4 23.7 15.0--- 5.0 3.0---- 0.0------------
1987-06-26 16.1 24.5 7.0--- 3.0 3.3---- 1.0------------
1987-06-25 14.8 18.6 11.3--- 4.3 4.0---- 0.0------------
1987-06-24 16.1 21.4 11.5--- 4.3 3.0---- 2.2------------
1987-06-23 17.0 21.5 12.6--- 6.0 4.0---- 0.0------------
1987-06-22 18.8 24.4 8.5--- 3.7 3.3---- 0.0------------
1987-06-21 18.0 24.7 7.8--- 2.0 2.0---- 0.0------------
1987-06-20 16.0 23.0 6.1--- 2.0 3.0---- 0.0------------
1987-06-19 12.8 17.2 7.5--- 2.7 3.3---- 2.2------------
1987-06-18 11.8 18.7 2.9--- 3.3 3.0---- 0.1------------
1987-06-17 11.7 16.5 8.3--- 4.7 3.0---- 0.0------------
1987-06-16 17.1 26.5 12.0--- 5.0 3.0---- 1.4------------
408.7 ms

 

Źródłem pochodzenia danych jest Instytut Meteorologii i Gospodarki Wodnej – Państwowy Instytut Badawczy. Dane Instytutu Meteorologii i Gospodarki Wodnej – Państwowego Instytutu Badawczego zostały przetworzone.

Dane źródłowe można odnaleźć na stronie https://dane.imgw.pl